createdAt,value
2022-12-13T07:01:44.222Z,2.50
2022-12-13T07:04:29.728Z,2.30
2022-12-13T07:07:07.972Z,3.30
2022-12-13T07:09:45.789Z,3.43
2022-12-13T07:12:22.630Z,3.37
2022-12-13T07:14:59.917Z,2.73
2022-12-13T07:17:39.612Z,3.43
2022-12-13T07:20:17.213Z,3.23
2022-12-13T07:22:58.715Z,3.13
2022-12-13T07:25:36.417Z,3.27
2022-12-13T07:28:13.615Z,3.83
2022-12-13T07:30:51.101Z,3.37
2022-12-13T07:33:31.956Z,3.33
2022-12-13T07:36:13.966Z,3.20
2022-12-13T07:38:56.004Z,3.33
2022-12-13T16:53:56.854Z,5.23
2022-12-13T16:56:38.285Z,6.13
2022-12-13T16:59:24.265Z,5.27
2022-12-13T17:02:03.574Z,5.93
2022-12-13T17:04:44.297Z,5.50
2022-12-13T17:07:25.468Z,4.57
2022-12-13T17:10:10.357Z,6.40
2022-12-13T17:12:54.717Z,5.93
2022-12-13T17:15:35.188Z,5.80
2022-12-13T17:18:14.551Z,5.27
2022-12-13T17:20:58.600Z,5.80
2022-12-13T17:23:41.567Z,6.50
2022-12-13T17:26:24.918Z,6.27
2022-12-13T17:29:04.021Z,5.37
2022-12-13T17:31:46.882Z,5.53
2022-12-13T17:34:26.181Z,5.57
2022-12-13T17:37:10.364Z,6.17
2022-12-13T17:39:52.227Z,5.60
2022-12-13T17:42:32.889Z,6.93
2022-12-13T17:45:12.788Z,5.90
2022-12-13T17:47:55.787Z,5.93
2022-12-13T17:50:35.634Z,5.40
2022-12-13T17:53:15.990Z,5.80
2022-12-13T17:56:01.038Z,6.33
2022-12-13T17:58:41.967Z,5.80
2022-12-13T18:01:26.595Z,6.33
2022-12-13T18:06:47.307Z,5.20
2022-12-13T18:09:27.537Z,6.10
2022-12-13T18:12:07.131Z,7.27
2022-12-13T18:14:52.632Z,6.60
2022-12-13T18:18:08.991Z,6.63
2022-12-13T18:20:35.621Z,5.23
2022-12-13T18:23:21.484Z,5.72
2022-12-13T18:26:13.448Z,6.68
2022-12-13T18:28:54.240Z,6.07
2022-12-13T18:31:37.392Z,6.83
2022-12-13T18:34:22.128Z,6.70
2022-12-13T18:37:03.996Z,7.60
2022-12-13T18:39:54.628Z,8.40
2022-12-13T18:42:39.268Z,9.07
2022-12-13T18:45:22.768Z,8.57
2022-12-13T18:48:09.824Z,9.37
2022-12-13T18:50:54.493Z,8.27
2022-12-13T18:53:39.699Z,6.72
2022-12-13T18:59:06.178Z,6.83
2022-12-13T19:01:46.542Z,6.37
2022-12-13T19:04:29.305Z,7.20
2022-12-13T19:07:10.646Z,6.60
2022-12-13T19:09:54.928Z,7.07
2022-12-13T19:12:35.948Z,6.30
2022-12-13T19:15:22.693Z,6.97
2022-12-13T19:18:02.958Z,7.57
2022-12-13T19:20:52.421Z,7.27
2022-12-13T19:23:33.506Z,7.17
2022-12-13T19:26:20.410Z,7.30
2022-12-13T19:29:06.497Z,6.03
2022-12-13T19:31:47.843Z,6.03
2022-12-13T19:34:33.088Z,6.67
2022-12-13T19:37:22.786Z,6.17
2022-12-13T19:40:11.911Z,7.60
2022-12-13T19:42:54.758Z,5.93
2022-12-13T19:45:36.397Z,7.30
2022-12-13T19:48:20.288Z,6.32
2022-12-13T19:51:07.382Z,7.07
2022-12-13T19:53:49.906Z,7.20
2022-12-13T19:56:38.493Z,7.33
2022-12-13T19:59:20.250Z,7.17
2022-12-13T20:02:04.001Z,6.77
2022-12-13T20:04:45.609Z,8.47
2022-12-13T20:07:28.848Z,6.83
2022-12-13T20:10:16.029Z,7.93
2022-12-13T20:13:20.873Z,8.30
2022-12-13T20:16:01.571Z,6.80
2022-12-13T20:18:57.077Z,8.33
2022-12-13T20:21:43.037Z,7.97
2022-12-13T20:24:34.628Z,6.57
2022-12-13T20:27:20.938Z,6.77
2022-12-13T20:30:05.308Z,7.43
2022-12-13T20:32:47.525Z,6.53
2022-12-13T20:35:49.751Z,6.47
2022-12-13T20:38:43.788Z,7.03
2022-12-13T20:41:25.298Z,7.03
2022-12-13T20:44:16.702Z,7.17
2022-12-13T20:47:00.272Z,7.07
2022-12-13T20:49:43.856Z,7.73
2022-12-13T20:52:29.489Z,12.00
2022-12-13T20:55:14.500Z,8.83
2022-12-13T20:57:55.149Z,7.15
2022-12-13T21:00:37.391Z,6.70
2022-12-13T21:03:18.948Z,7.70
2022-12-13T21:06:09.458Z,7.47
2022-12-13T21:08:55.815Z,6.87
2022-12-13T21:11:42.223Z,7.67
2022-12-13T21:14:25.519Z,7.90
2022-12-13T21:17:10.108Z,7.47
2022-12-13T21:19:48.783Z,7.83
2022-12-13T21:22:27.093Z,7.13
2022-12-13T21:25:06.594Z,7.03
2022-12-13T21:27:44.485Z,7.60
2022-12-13T21:30:27.348Z,7.63
2022-12-13T21:33:07.618Z,7.43
2022-12-13T21:35:45.860Z,7.33
2022-12-13T21:38:23.506Z,7.90
2022-12-13T21:41:01.239Z,7.13
2022-12-13T21:43:40.014Z,7.63
2022-12-13T21:46:21.489Z,7.37
2022-12-13T21:49:03.099Z,7.97
2022-12-13T21:51:46.013Z,7.60
2022-12-13T21:54:24.659Z,6.27
2022-12-13T21:57:14.127Z,6.50
2022-12-13T21:59:51.106Z,6.37
2022-12-13T22:02:28.737Z,7.33
2022-12-13T22:05:09.898Z,7.13
2022-12-13T22:07:48.178Z,7.27
2022-12-13T22:10:25.382Z,7.00
2022-12-13T22:13:04.887Z,8.20
2022-12-13T22:15:42.268Z,6.37
2022-12-13T22:18:20.192Z,7.20
2022-12-13T22:21:03.159Z,9.07
2022-12-13T22:23:40.873Z,7.55
2022-12-13T22:26:17.971Z,9.13
2022-12-13T22:28:55.849Z,8.00
2022-12-13T22:31:33.394Z,7.67
2022-12-13T22:34:11.278Z,6.33
2022-12-13T22:36:50.991Z,6.73
2022-12-13T22:39:28.684Z,6.17
2022-12-13T22:42:05.594Z,6.93
2022-12-13T22:44:43.116Z,6.83
2022-12-13T22:47:20.324Z,7.07
2022-12-13T22:49:57.664Z,6.57
2022-12-13T22:52:37.175Z,7.67
2022-12-13T22:55:14.557Z,8.17
2022-12-13T22:57:51.495Z,7.80
2022-12-13T23:00:29.114Z,7.47
2022-12-13T23:03:06.278Z,7.20
2022-12-13T23:05:43.899Z,7.20
2022-12-13T23:08:23.755Z,7.63
2022-12-13T23:11:15.588Z,7.37
2022-12-13T23:13:56.107Z,8.03
2022-12-13T23:16:36.645Z,7.47
2022-12-13T23:19:40.816Z,6.50
2022-12-13T23:22:14.129Z,6.57
2022-12-13T23:24:53.829Z,6.23
2022-12-13T23:27:31.221Z,6.13
2022-12-13T23:30:09.830Z,6.17
2022-12-13T23:32:47.277Z,6.83
2022-12-13T23:35:24.230Z,6.53
2022-12-13T23:38:01.527Z,6.03
2022-12-13T23:40:41.059Z,6.23
2022-12-13T23:43:18.367Z,6.70
2022-12-13T23:45:55.293Z,6.93
2022-12-13T23:48:35.157Z,6.40
2022-12-13T23:51:15.077Z,5.37
2022-12-13T23:53:53.067Z,5.73
2022-12-13T23:56:33.851Z,6.07
2022-12-13T23:59:11.110Z,6.60
